sensor_id;sensor_type;location;lat;lon;timestamp;temperature;humidity
5779;DHT22;2916;49.798;10.022;2022-07-23T00:00:24;22.70;1.00
5779;DHT22;2916;49.798;10.022;2022-07-23T00:02:51;22.60;1.00
5779;DHT22;2916;49.798;10.022;2022-07-23T00:05:19;22.60;1.00
5779;DHT22;2916;49.798;10.022;2022-07-23T00:07:46;22.60;1.00
5779;DHT22;2916;49.798;10.022;2022-07-23T00:10:13;22.60;1.00
5779;DHT22;2916;49.798;10.022;2022-07-23T00:12:42;22.60;1.00
5779;DHT22;2916;49.798;10.022;2022-07-23T00:15:10;22.50;1.00
5779;DHT22;2916;49.798;10.022;2022-07-23T00:17:37;22.50;1.00
5779;DHT22;2916;49.798;10.022;2022-07-23T00:20:05;22.50;1.00
5779;DHT22;2916;49.798;10.022;2022-07-23T00:22:33;22.50;1.00
5779;DHT22;2916;49.798;10.022;2022-07-23T00:25:01;22.50;1.00
5779;DHT22;2916;49.798;10.022;2022-07-23T00:27:28;22.40;1.00
5779;DHT22;2916;49.798;10.022;2022-07-23T00:29:56;22.40;1.00
5779;DHT22;2916;49.798;10.022;2022-07-23T00:32:24;22.40;1.00
5779;DHT22;2916;49.798;10.022;2022-07-23T00:34:51;22.40;1.00
5779;DHT22;2916;49.798;10.022;2022-07-23T00:37:18;22.30;1.00
5779;DHT22;2916;49.798;10.022;2022-07-23T00:39:45;22.30;1.00
5779;DHT22;2916;49.798;10.022;2022-07-23T00:42:12;22.40;1.00
5779;DHT22;2916;49.798;10.022;2022-07-23T00:44:39;22.40;1.00
5779;DHT22;2916;49.798;10.022;2022-07-23T00:47:08;22.30;1.00
5779;DHT22;2916;49.798;10.022;2022-07-23T00:49:35;22.20;1.00
5779;DHT22;2916;49.798;10.022;2022-07-23T00:52:02;22.10;1.00
5779;DHT22;2916;49.798;10.022;2022-07-23T00:54:31;22.10;1.00
5779;DHT22;2916;49.798;10.022;2022-07-23T00:56:59;22.00;1.00
5779;DHT22;2916;49.798;10.022;2022-07-23T00:59:26;22.10;1.00
5779;DHT22;2916;49.798;10.022;2022-07-23T01:01:53;22.10;1.00
5779;DHT22;2916;49.798;10.022;2022-07-23T01:04:22;22.10;1.00
5779;DHT22;2916;49.798;10.022;2022-07-23T01:06:49;22.00;1.00
5779;DHT22;2916;49.798;10.022;2022-07-23T01:09:17;21.80;1.00
5779;DHT22;2916;49.798;10.022;2022-07-23T01:11:45;21.80;1.00
5779;DHT22;2916;49.798;10.022;2022-07-23T01:14:13;21.80;1.00
5779;DHT22;2916;49.798;10.022;2022-07-23T01:16:42;21.80;1.00
5779;DHT22;2916;49.798;10.022;2022-07-23T01:19:11;21.70;1.00
5779;DHT22;2916;49.798;10.022;2022-07-23T01:21:42;21.60;1.00
5779;DHT22;2916;49.798;10.022;2022-07-23T01:24:12;21.50;1.00
5779;DHT22;2916;49.798;10.022;2022-07-23T01:26:42;21.40;1.00
5779;DHT22;2916;49.798;10.022;2022-07-23T01:29:10;21.40;1.00
5779;DHT22;2916;49.798;10.022;2022-07-23T01:31:38;21.30;1.00
5779;DHT22;2916;49.798;10.022;2022-07-23T01:34:05;21.30;1.00
5779;DHT22;2916;49.798;10.022;2022-07-23T01:36:33;21.40;1.00
5779;DHT22;2916;49.798;10.022;2022-07-23T01:39:00;21.30;1.00
5779;DHT22;2916;49.798;10.022;2022-07-23T01:41:29;21.40;1.00
5779;DHT22;2916;49.798;10.022;2022-07-23T01:43:56;21.30;1.00
5779;DHT22;2916;49.798;10.022;2022-07-23T01:46:23;21.30;1.00
5779;DHT22;2916;49.798;10.022;2022-07-23T01:48:51;21.30;1.00
5779;DHT22;2916;49.798;10.022;2022-07-23T01:51:18;21.30;1.00
5779;DHT22;2916;49.798;10.022;2022-07-23T01:53:45;21.30;1.00
5779;DHT22;2916;49.798;10.022;2022-07-23T01:56:12;21.30;1.00
5779;DHT22;2916;49.798;10.022;2022-07-23T01:58:42;21.30;1.00
5779;DHT22;2916;49.798;10.022;2022-07-23T02:01:09;21.30;1.00
5779;DHT22;2916;49.798;10.022;2022-07-23T02:03:36;21.30;1.00
5779;DHT22;2916;49.798;10.022;2022-07-23T02:06:03;21.30;1.00
5779;DHT22;2916;49.798;10.022;2022-07-23T02:08:30;21.30;1.00
5779;DHT22;2916;49.798;10.022;2022-07-23T02:10:58;21.20;1.00
5779;DHT22;2916;49.798;10.022;2022-07-23T02:13:25;21.20;1.00
5779;DHT22;2916;49.798;10.022;2022-07-23T02:15:55;21.20;1.00
5779;DHT22;2916;49.798;10.022;2022-07-23T02:18:22;21.20;1.00
5779;DHT22;2916;49.798;10.022;2022-07-23T02:20:49;21.20;1.00
5779;DHT22;2916;49.798;10.022;2022-07-23T02:23:17;21.20;1.00
5779;DHT22;2916;49.798;10.022;2022-07-23T02:25:44;21.20;1.00
5779;DHT22;2916;49.798;10.022;2022-07-23T02:28:11;21.20;1.00
5779;DHT22;2916;49.798;10.022;2022-07-23T02:30:38;21.20;1.00
5779;DHT22;2916;49.798;10.022;2022-07-23T02:33:07;21.20;1.00
5779;DHT22;2916;49.798;10.022;2022-07-23T02:35:34;21.10;1.00
5779;DHT22;2916;49.798;10.022;2022-07-23T02:38:01;21.10;1.00
5779;DHT22;2916;49.798;10.022;2022-07-23T02:40:28;21.10;1.00
5779;DHT22;2916;49.798;10.022;2022-07-23T02:42:55;21.00;1.00
5779;DHT22;2916;49.798;10.022;2022-07-23T02:45:23;21.00;1.00
5779;DHT22;2916;49.798;10.022;2022-07-23T02:47:50;21.00;1.00
5779;DHT22;2916;49.798;10.022;2022-07-23T02:50:19;21.00;1.00
5779;DHT22;2916;49.798;10.022;2022-07-23T02:52:46;21.00;1.00
5779;DHT22;2916;49.798;10.022;2022-07-23T02:55:13;20.90;1.00
5779;DHT22;2916;49.798;10.022;2022-07-23T02:57:40;20.90;1.00
5779;DHT22;2916;49.798;10.022;2022-07-23T03:00:09;20.80;1.00
5779;DHT22;2916;49.798;10.022;2022-07-23T03:02:37;20.70;1.00
5779;DHT22;2916;49.798;10.022;2022-07-23T03:05:05;20.60;1.00
5779;DHT22;2916;49.798;10.022;2022-07-23T03:07:34;20.60;9.10
5779;DHT22;2916;49.798;10.022;2022-07-23T03:10:01;20.50;1.20
5779;DHT22;2916;49.798;10.022;2022-07-23T03:12:29;20.40;9.90
5779;DHT22;2916;49.798;10.022;2022-07-23T03:14:56;20.50;2.60
5779;DHT22;2916;49.798;10.022;2022-07-23T03:17:24;20.50;6.30
5779;DHT22;2916;49.798;10.022;2022-07-23T03:19:51;20.50;2.90
5779;DHT22;2916;49.798;10.022;2022-07-23T03:22:18;20.50;4.20
5779;DHT22;2916;49.798;10.022;2022-07-23T03:24:47;20.40;5.00
5779;DHT22;2916;49.798;10.022;2022-07-23T03:27:20;20.40;5.40
5779;DHT22;2916;49.798;10.022;2022-07-23T03:29:48;20.40;4.90
5779;DHT22;2916;49.798;10.022;2022-07-23T03:32:16;20.40;5.70
5779;DHT22;2916;49.798;10.022;2022-07-23T03:34:43;20.40;7.90
5779;DHT22;2916;49.798;10.022;2022-07-23T03:37:10;20.40;7.50
5779;DHT22;2916;49.798;10.022;2022-07-23T03:39:37;20.40;14.30
5779;DHT22;2916;49.798;10.022;2022-07-23T03:42:06;20.30;17.90
5779;DHT22;2916;49.798;10.022;2022-07-23T03:44:34;20.30;15.00
5779;DHT22;2916;49.798;10.022;2022-07-23T03:47:02;20.40;18.40
5779;DHT22;2916;49.798;10.022;2022-07-23T03:49:30;20.50;16.20
5779;DHT22;2916;49.798;10.022;2022-07-23T03:51:58;20.40;20.10
5779;DHT22;2916;49.798;10.022;2022-07-23T03:54:26;20.40;23.00
5779;DHT22;2916;49.798;10.022;2022-07-23T03:56:54;20.40;22.90
5779;DHT22;2916;49.798;10.022;2022-07-23T03:59:22;20.30;18.90
5779;DHT22;2916;49.798;10.022;2022-07-23T04:01:49;20.40;22.90
5779;DHT22;2916;49.798;10.022;2022-07-23T04:04:17;20.50;22.50
5779;DHT22;2916;49.798;10.022;2022-07-23T04:06:44;20.50;24.10
5779;DHT22;2916;49.798;10.022;2022-07-23T04:09:12;20.40;27.80
5779;DHT22;2916;49.798;10.022;2022-07-23T04:11:39;20.50;26.00
5779;DHT22;2916;49.798;10.022;2022-07-23T04:14:06;20.50;25.90
5779;DHT22;2916;49.798;10.022;2022-07-23T04:16:35;20.50;26.60
5779;DHT22;2916;49.798;10.022;2022-07-23T04:19:02;20.50;25.60
5779;DHT22;2916;49.798;10.022;2022-07-23T04:21:30;20.60;28.60
5779;DHT22;2916;49.798;10.022;2022-07-23T04:23:57;20.60;24.00
5779;DHT22;2916;49.798;10.022;2022-07-23T04:26:24;20.60;24.60
5779;DHT22;2916;49.798;10.022;2022-07-23T04:28:51;20.60;23.00
5779;DHT22;2916;49.798;10.022;2022-07-23T04:31:19;20.70;24.50
5779;DHT22;2916;49.798;10.022;2022-07-23T04:33:47;20.60;59.30
5779;DHT22;2916;49.798;10.022;2022-07-23T04:36:14;20.50;94.10
5779;DHT22;2916;49.798;10.022;2022-07-23T04:38:41;20.40;99.90
5779;DHT22;2916;49.798;10.022;2022-07-23T04:41:09;20.30;99.90
5779;DHT22;2916;49.798;10.022;2022-07-23T04:43:36;20.30;99.90
5779;DHT22;2916;49.798;10.022;2022-07-23T04:46:03;20.20;99.90
5779;DHT22;2916;49.798;10.022;2022-07-23T04:48:31;20.20;99.90
5779;DHT22;2916;49.798;10.022;2022-07-23T04:50:59;20.10;99.90
5779;DHT22;2916;49.798;10.022;2022-07-23T04:53:27;20.20;99.90
5779;DHT22;2916;49.798;10.022;2022-07-23T04:55:54;20.10;99.90
5779;DHT22;2916;49.798;10.022;2022-07-23T04:58:21;20.10;99.90
5779;DHT22;2916;49.798;10.022;2022-07-23T05:00:49;20.00;99.90
5779;DHT22;2916;49.798;10.022;2022-07-23T05:03:16;20.10;99.90
5779;DHT22;2916;49.798;10.022;2022-07-23T05:05:44;20.10;99.90
5779;DHT22;2916;49.798;10.022;2022-07-23T05:08:12;20.40;99.90
5779;DHT22;2916;49.798;10.022;2022-07-23T05:10:40;20.70;99.90
5779;DHT22;2916;49.798;10.022;2022-07-23T05:13:07;21.00;99.90
5779;DHT22;2916;49.798;10.022;2022-07-23T05:15:35;21.30;99.90
5779;DHT22;2916;49.798;10.022;2022-07-23T05:18:02;21.70;99.90
5779;DHT22;2916;49.798;10.022;2022-07-23T05:20:29;22.20;99.90
5779;DHT22;2916;49.798;10.022;2022-07-23T05:22:56;23.00;90.80
5779;DHT22;2916;49.798;10.022;2022-07-23T05:25:25;23.00;38.00
5779;DHT22;2916;49.798;10.022;2022-07-23T05:27:53;23.10;45.40
5779;DHT22;2916;49.798;10.022;2022-07-23T05:30:20;23.10;34.70
5779;DHT22;2916;49.798;10.022;2022-07-23T05:32:47;23.10;44.00
5779;DHT22;2916;49.798;10.022;2022-07-23T05:35:15;22.90;41.90
5779;DHT22;2916;49.798;10.022;2022-07-23T05:37:42;22.60;40.10
5779;DHT22;2916;49.798;10.022;2022-07-23T05:40:10;22.40;41.40
5779;DHT22;2916;49.798;10.022;2022-07-23T05:42:40;22.40;50.60
5779;DHT22;2916;49.798;10.022;2022-07-23T05:45:09;22.30;40.80
5779;DHT22;2916;49.798;10.022;2022-07-23T05:47:44;22.20;41.40
5779;DHT22;2916;49.798;10.022;2022-07-23T05:50:13;22.20;39.80
5779;DHT22;2916;49.798;10.022;2022-07-23T05:52:41;22.00;42.70
5779;DHT22;2916;49.798;10.022;2022-07-23T05:55:11;21.90;42.40
5779;DHT22;2916;49.798;10.022;2022-07-23T05:57:40;22.00;39.30
5779;DHT22;2916;49.798;10.022;2022-07-23T06:00:09;21.90;41.20
5779;DHT22;2916;49.798;10.022;2022-07-23T06:02:38;22.00;38.80
5779;DHT22;2916;49.798;10.022;2022-07-23T06:05:06;21.90;36.10
5779;DHT22;2916;49.798;10.022;2022-07-23T06:07:34;21.90;38.90
5779;DHT22;2916;49.798;10.022;2022-07-23T06:10:02;21.90;37.90
5779;DHT22;2916;49.798;10.022;2022-07-23T06:12:30;21.80;35.40
5779;DHT22;2916;49.798;10.022;2022-07-23T06:14:59;21.80;43.90
5779;DHT22;2916;49.798;10.022;2022-07-23T06:17:27;21.70;58.10
5779;DHT22;2916;49.798;10.022;2022-07-23T06:19:55;21.60;71.40
5779;DHT22;2916;49.798;10.022;2022-07-23T06:22:23;21.60;87.40
5779;DHT22;2916;49.798;10.022;2022-07-23T06:24:50;21.40;99.70
5779;DHT22;2916;49.798;10.022;2022-07-23T06:27:18;21.40;99.90
5779;DHT22;2916;49.798;10.022;2022-07-23T06:29:45;21.40;99.90
5779;DHT22;2916;49.798;10.022;2022-07-23T06:32:14;21.40;99.90
5779;DHT22;2916;49.798;10.022;2022-07-23T06:34:41;21.30;99.90
5779;DHT22;2916;49.798;10.022;2022-07-23T06:37:08;21.30;99.90
5779;DHT22;2916;49.798;10.022;2022-07-23T06:39:35;21.30;99.90
5779;DHT22;2916;49.798;10.022;2022-07-23T06:42:02;21.30;99.90
5779;DHT22;2916;49.798;10.022;2022-07-23T06:44:30;21.40;99.90
5779;DHT22;2916;49.798;10.022;2022-07-23T06:46:57;21.40;99.90
5779;DHT22;2916;49.798;10.022;2022-07-23T06:49:26;21.40;99.90
5779;DHT22;2916;49.798;10.022;2022-07-23T06:51:53;21.30;99.90
5779;DHT22;2916;49.798;10.022;2022-07-23T06:54:20;21.20;99.90
5779;DHT22;2916;49.798;10.022;2022-07-23T06:56:47;21.20;99.90
5779;DHT22;2916;49.798;10.022;2022-07-23T06:59:14;21.10;99.90
5779;DHT22;2916;49.798;10.022;2022-07-23T07:01:42;21.10;99.90
5779;DHT22;2916;49.798;10.022;2022-07-23T07:04:09;21.20;99.90
5779;DHT22;2916;49.798;10.022;2022-07-23T07:06:37;21.20;99.90
5779;DHT22;2916;49.798;10.022;2022-07-23T07:09:05;21.20;99.90
5779;DHT22;2916;49.798;10.022;2022-07-23T07:11:32;21.10;99.90
5779;DHT22;2916;49.798;10.022;2022-07-23T07:13:59;21.20;99.90
5779;DHT22;2916;49.798;10.022;2022-07-23T07:16:26;21.10;99.90
5779;DHT22;2916;49.798;10.022;2022-07-23T07:18:53;21.00;99.90
5779;DHT22;2916;49.798;10.022;2022-07-23T07:21:20;20.90;99.90
5779;DHT22;2916;49.798;10.022;2022-07-23T07:23:49;20.90;99.90
5779;DHT22;2916;49.798;10.022;2022-07-23T07:26:16;21.00;99.90
5779;DHT22;2916;49.798;10.022;2022-07-23T07:28:43;21.00;99.90
5779;DHT22;2916;49.798;10.022;2022-07-23T07:31:10;21.00;99.90
5779;DHT22;2916;49.798;10.022;2022-07-23T07:33:37;20.90;99.90
5779;DHT22;2916;49.798;10.022;2022-07-23T07:36:05;21.00;99.90
5779;DHT22;2916;49.798;10.022;2022-07-23T07:38:32;21.10;99.90
5779;DHT22;2916;49.798;10.022;2022-07-23T07:41:01;21.20;99.90
5779;DHT22;2916;49.798;10.022;2022-07-23T07:43:28;21.10;99.90
5779;DHT22;2916;49.798;10.022;2022-07-23T07:45:55;21.30;99.90
5779;DHT22;2916;49.798;10.022;2022-07-23T07:48:23;21.50;99.90
5779;DHT22;2916;49.798;10.022;2022-07-23T07:50:50;21.30;99.90
5779;DHT22;2916;49.798;10.022;2022-07-23T07:53:17;21.20;99.90
5779;DHT22;2916;49.798;10.022;2022-07-23T07:55:44;21.30;99.90
5779;DHT22;2916;49.798;10.022;2022-07-23T07:58:13;21.50;99.90
5779;DHT22;2916;49.798;10.022;2022-07-23T08:00:40;21.80;99.90
5779;DHT22;2916;49.798;10.022;2022-07-23T08:03:07;22.10;99.90
5779;DHT22;2916;49.798;10.022;2022-07-23T08:05:35;22.40;99.90
5779;DHT22;2916;49.798;10.022;2022-07-23T08:08:02;22.80;99.90
5779;DHT22;2916;49.798;10.022;2022-07-23T08:10:29;23.20;99.90
5779;DHT22;2916;49.798;10.022;2022-07-23T08:12:59;24.00;99.90
5779;DHT22;2916;49.798;10.022;2022-07-23T08:15:29;24.30;99.90
5779;DHT22;2916;49.798;10.022;2022-07-23T08:17:58;24.30;99.90
5779;DHT22;2916;49.798;10.022;2022-07-23T08:20:26;24.80;99.90
5779;DHT22;2916;49.798;10.022;2022-07-23T08:22:55;24.60;99.90
5779;DHT22;2916;49.798;10.022;2022-07-23T08:25:26;24.50;99.90
5779;DHT22;2916;49.798;10.022;2022-07-23T08:27:55;24.60;99.90
5779;DHT22;2916;49.798;10.022;2022-07-23T08:30:23;24.40;99.90
5779;DHT22;2916;49.798;10.022;2022-07-23T08:32:54;24.20;99.90
5779;DHT22;2916;49.798;10.022;2022-07-23T08:35:25;24.30;99.90
5779;DHT22;2916;49.798;10.022;2022-07-23T08:37:54;24.60;99.90
5779;DHT22;2916;49.798;10.022;2022-07-23T08:40:22;24.40;99.90
5779;DHT22;2916;49.798;10.022;2022-07-23T08:42:50;24.60;99.90
5779;DHT22;2916;49.798;10.022;2022-07-23T08:45:19;24.50;99.90
5779;DHT22;2916;49.798;10.022;2022-07-23T08:47:53;24.50;99.90
5779;DHT22;2916;49.798;10.022;2022-07-23T08:50:23;24.80;99.90
5779;DHT22;2916;49.798;10.022;2022-07-23T08:52:52;24.80;99.90
5779;DHT22;2916;49.798;10.022;2022-07-23T08:55:22;24.80;99.90
5779;DHT22;2916;49.798;10.022;2022-07-23T08:57:51;24.90;99.90
5779;DHT22;2916;49.798;10.022;2022-07-23T09:00:21;25.00;99.90
5779;DHT22;2916;49.798;10.022;2022-07-23T09:02:49;25.00;98.20
5779;DHT22;2916;49.798;10.022;2022-07-23T09:05:18;25.10;99.90
5779;DHT22;2916;49.798;10.022;2022-07-23T09:08:04;25.00;98.60
5779;DHT22;2916;49.798;10.022;2022-07-23T09:10:43;25.30;98.40
5779;DHT22;2916;49.798;10.022;2022-07-23T09:13:27;25.20;96.10
5779;DHT22;2916;49.798;10.022;2022-07-23T09:16:00;25.40;87.80
5779;DHT22;2916;49.798;10.022;2022-07-23T09:18:35;25.20;79.40
5779;DHT22;2916;49.798;10.022;2022-07-23T09:21:12;25.30;75.10
5779;DHT22;2916;49.798;10.022;2022-07-23T09:23:52;25.10;70.10
5779;DHT22;2916;49.798;10.022;2022-07-23T09:26:26;25.10;75.20
5779;DHT22;2916;49.798;10.022;2022-07-23T09:29:02;25.00;69.20
5779;DHT22;2916;49.798;10.022;2022-07-23T09:31:42;24.90;67.30
5779;DHT22;2916;49.798;10.022;2022-07-23T09:34:18;25.20;69.00
5779;DHT22;2916;49.798;10.022;2022-07-23T09:36:49;25.20;77.30
5779;DHT22;2916;49.798;10.022;2022-07-23T09:39:26;25.80;36.00
5779;DHT22;2916;49.798;10.022;2022-07-23T09:41:55;26.70;37.80
5779;DHT22;2916;49.798;10.022;2022-07-23T09:44:23;26.80;13.40
5779;DHT22;2916;49.798;10.022;2022-07-23T09:46:58;27.70;14.30
5779;DHT22;2916;49.798;10.022;2022-07-23T09:49:27;27.30;7.20
5779;DHT22;2916;49.798;10.022;2022-07-23T09:51:58;27.50;1.00
5779;DHT22;2916;49.798;10.022;2022-07-23T09:54:30;27.60;1.00
5779;DHT22;2916;49.798;10.022;2022-07-23T09:57:03;27.60;1.00
5779;DHT22;2916;49.798;10.022;2022-07-23T09:59:36;27.30;1.00
5779;DHT22;2916;49.798;10.022;2022-07-23T10:02:06;27.70;1.00
5779;DHT22;2916;49.798;10.022;2022-07-23T10:04:35;27.70;1.00
5779;DHT22;2916;49.798;10.022;2022-07-23T10:07:06;28.20;1.00
5779;DHT22;2916;49.798;10.022;2022-07-23T10:09:37;28.40;1.00
5779;DHT22;2916;49.798;10.022;2022-07-23T10:12:10;28.70;1.00
5779;DHT22;2916;49.798;10.022;2022-07-23T10:15:01;28.70;1.00
5779;DHT22;2916;49.798;10.022;2022-07-23T10:17:30;28.40;1.00
5779;DHT22;2916;49.798;10.022;2022-07-23T10:19:57;28.60;1.00
5779;DHT22;2916;49.798;10.022;2022-07-23T10:22:28;28.80;1.00
5779;DHT22;2916;49.798;10.022;2022-07-23T10:25:09;28.80;1.00
5779;DHT22;2916;49.798;10.022;2022-07-23T10:27:53;28.90;1.00
5779;DHT22;2916;49.798;10.022;2022-07-23T10:30:38;28.80;1.00
5779;DHT22;2916;49.798;10.022;2022-07-23T10:33:18;28.80;1.00
5779;DHT22;2916;49.798;10.022;2022-07-23T10:35:58;28.80;1.00
5779;DHT22;2916;49.798;10.022;2022-07-23T10:38:36;29.00;1.00
5779;DHT22;2916;49.798;10.022;2022-07-23T10:41:10;29.40;1.00
5779;DHT22;2916;49.798;10.022;2022-07-23T10:43:38;29.50;1.00
5779;DHT22;2916;49.798;10.022;2022-07-23T10:46:23;29.70;1.00
5779;DHT22;2916;49.798;10.022;2022-07-23T10:49:24;29.80;1.00
5779;DHT22;2916;49.798;10.022;2022-07-23T10:52:17;30.00;1.00
5779;DHT22;2916;49.798;10.022;2022-07-23T10:54:53;30.40;1.00
5779;DHT22;2916;49.798;10.022;2022-07-23T10:57:22;30.50;1.00
5779;DHT22;2916;49.798;10.022;2022-07-23T11:00:13;30.40;1.00
5779;DHT22;2916;49.798;10.022;2022-07-23T11:02:51;30.50;1.00
5779;DHT22;2916;49.798;10.022;2022-07-23T11:05:21;30.70;1.00
5779;DHT22;2916;49.798;10.022;2022-07-23T11:08:16;30.70;1.00
5779;DHT22;2916;49.798;10.022;2022-07-23T11:10:49;30.80;1.00
5779;DHT22;2916;49.798;10.022;2022-07-23T11:13:35;30.60;1.00
5779;DHT22;2916;49.798;10.022;2022-07-23T11:16:11;30.50;1.00
5779;DHT22;2916;49.798;10.022;2022-07-23T11:19:10;30.40;1.00
5779;DHT22;2916;49.798;10.022;2022-07-23T11:21:51;30.60;1.00
5779;DHT22;2916;49.798;10.022;2022-07-23T11:24:20;30.40;1.00
5779;DHT22;2916;49.798;10.022;2022-07-23T11:26:59;30.60;1.00
5779;DHT22;2916;49.798;10.022;2022-07-23T11:29:44;30.90;1.00
5779;DHT22;2916;49.798;10.022;2022-07-23T11:32:29;31.00;1.00
5779;DHT22;2916;49.798;10.022;2022-07-23T11:34:59;31.10;1.00
5779;DHT22;2916;49.798;10.022;2022-07-23T11:37:35;31.30;1.00
5779;DHT22;2916;49.798;10.022;2022-07-23T11:40:07;31.60;1.00
5779;DHT22;2916;49.798;10.022;2022-07-23T11:42:39;31.80;1.00
5779;DHT22;2916;49.798;10.022;2022-07-23T11:45:08;31.70;1.00
5779;DHT22;2916;49.798;10.022;2022-07-23T11:47:35;31.50;1.00
5779;DHT22;2916;49.798;10.022;2022-07-23T11:50:05;31.60;1.00
5779;DHT22;2916;49.798;10.022;2022-07-23T11:52:34;31.20;1.00
5779;DHT22;2916;49.798;10.022;2022-07-23T11:55:02;31.50;1.00
5779;DHT22;2916;49.798;10.022;2022-07-23T11:57:33;31.30;1.00
5779;DHT22;2916;49.798;10.022;2022-07-23T12:00:06;31.60;1.00
5779;DHT22;2916;49.798;10.022;2022-07-23T12:02:36;31.30;1.00
5779;DHT22;2916;49.798;10.022;2022-07-23T12:05:05;31.30;1.00
5779;DHT22;2916;49.798;10.022;2022-07-23T12:07:36;31.50;1.00
5779;DHT22;2916;49.798;10.022;2022-07-23T12:10:10;31.70;1.00
5779;DHT22;2916;49.798;10.022;2022-07-23T12:12:40;32.00;1.00
5779;DHT22;2916;49.798;10.022;2022-07-23T12:15:12;32.10;1.00
5779;DHT22;2916;49.798;10.022;2022-07-23T12:17:43;32.30;1.00
5779;DHT22;2916;49.798;10.022;2022-07-23T12:20:14;32.50;1.00
5779;DHT22;2916;49.798;10.022;2022-07-23T12:22:44;32.40;1.00
5779;DHT22;2916;49.798;10.022;2022-07-23T12:25:14;32.20;1.00
5779;DHT22;2916;49.798;10.022;2022-07-23T12:27:43;31.90;1.00
5779;DHT22;2916;49.798;10.022;2022-07-23T12:30:23;31.80;1.00
5779;DHT22;2916;49.798;10.022;2022-07-23T12:32:53;31.10;1.00
5779;DHT22;2916;49.798;10.022;2022-07-23T12:35:29;31.10;1.00
5779;DHT22;2916;49.798;10.022;2022-07-23T12:38:01;31.30;1.00
5779;DHT22;2916;49.798;10.022;2022-07-23T12:40:32;31.40;1.00
5779;DHT22;2916;49.798;10.022;2022-07-23T12:43:03;31.60;1.00
5779;DHT22;2916;49.798;10.022;2022-07-23T12:45:48;31.30;1.00
5779;DHT22;2916;49.798;10.022;2022-07-23T12:48:19;31.10;1.00
5779;DHT22;2916;49.798;10.022;2022-07-23T12:50:54;31.20;1.00
5779;DHT22;2916;49.798;10.022;2022-07-23T12:53:25;31.30;1.00
5779;DHT22;2916;49.798;10.022;2022-07-23T12:56:00;31.40;1.00
5779;DHT22;2916;49.798;10.022;2022-07-23T12:58:40;31.30;1.00
5779;DHT22;2916;49.798;10.022;2022-07-23T13:01:22;31.20;1.00
5779;DHT22;2916;49.798;10.022;2022-07-23T13:03:56;31.50;1.00
5779;DHT22;2916;49.798;10.022;2022-07-23T13:06:26;31.50;1.00
5779;DHT22;2916;49.798;10.022;2022-07-23T13:08:54;31.60;1.00
5779;DHT22;2916;49.798;10.022;2022-07-23T13:11:22;31.50;1.00
5779;DHT22;2916;49.798;10.022;2022-07-23T13:13:49;31.50;1.00
5779;DHT22;2916;49.798;10.022;2022-07-23T13:16:18;31.50;1.00
5779;DHT22;2916;49.798;10.022;2022-07-23T13:18:45;31.30;1.00
5779;DHT22;2916;49.798;10.022;2022-07-23T13:21:13;31.40;1.00
5779;DHT22;2916;49.798;10.022;2022-07-23T13:23:40;31.10;1.00
5779;DHT22;2916;49.798;10.022;2022-07-23T13:26:08;31.30;1.00
5779;DHT22;2916;49.798;10.022;2022-07-23T13:28:35;31.20;1.00
5779;DHT22;2916;49.798;10.022;2022-07-23T13:31:03;30.90;1.00
5779;DHT22;2916;49.798;10.022;2022-07-23T13:33:31;30.60;1.00
5779;DHT22;2916;49.798;10.022;2022-07-23T13:35:59;30.50;1.00
5779;DHT22;2916;49.798;10.022;2022-07-23T13:38:26;30.70;1.00
5779;DHT22;2916;49.798;10.022;2022-07-23T13:40:54;30.90;1.00
5779;DHT22;2916;49.798;10.022;2022-07-23T13:43:23;30.80;1.00
5779;DHT22;2916;49.798;10.022;2022-07-23T13:45:52;30.80;1.00
5779;DHT22;2916;49.798;10.022;2022-07-23T13:48:20;30.90;1.00
5779;DHT22;2916;49.798;10.022;2022-07-23T13:50:49;31.00;1.00
5779;DHT22;2916;49.798;10.022;2022-07-23T13:53:18;30.90;1.00
5779;DHT22;2916;49.798;10.022;2022-07-23T13:55:48;31.00;1.00
5779;DHT22;2916;49.798;10.022;2022-07-23T13:58:18;30.90;1.00
5779;DHT22;2916;49.798;10.022;2022-07-23T14:00:47;30.70;1.00
5779;DHT22;2916;49.798;10.022;2022-07-23T14:03:17;30.70;1.00
5779;DHT22;2916;49.798;10.022;2022-07-23T14:05:46;30.50;1.00
5779;DHT22;2916;49.798;10.022;2022-07-23T14:08:14;30.40;1.00
5779;DHT22;2916;49.798;10.022;2022-07-23T14:10:41;30.50;1.00
5779;DHT22;2916;49.798;10.022;2022-07-23T14:13:09;30.70;1.00
5779;DHT22;2916;49.798;10.022;2022-07-23T14:15:36;30.80;1.00
5779;DHT22;2916;49.798;10.022;2022-07-23T14:18:06;30.60;1.00
5779;DHT22;2916;49.798;10.022;2022-07-23T14:20:33;30.50;1.00
5779;DHT22;2916;49.798;10.022;2022-07-23T14:23:02;30.60;1.00
5779;DHT22;2916;49.798;10.022;2022-07-23T14:25:30;30.60;1.00
5779;DHT22;2916;49.798;10.022;2022-07-23T14:27:57;30.50;1.00
5779;DHT22;2916;49.798;10.022;2022-07-23T14:30:24;30.60;1.00
5779;DHT22;2916;49.798;10.022;2022-07-23T14:32:51;30.60;1.00
5779;DHT22;2916;49.798;10.022;2022-07-23T14:35:18;30.40;1.00
5779;DHT22;2916;49.798;10.022;2022-07-23T14:37:46;30.30;1.00
5779;DHT22;2916;49.798;10.022;2022-07-23T14:40:14;30.50;1.00
5779;DHT22;2916;49.798;10.022;2022-07-23T14:42:41;30.30;1.00
5779;DHT22;2916;49.798;10.022;2022-07-23T14:45:09;30.20;1.00
5779;DHT22;2916;49.798;10.022;2022-07-23T14:47:37;30.20;1.00
5779;DHT22;2916;49.798;10.022;2022-07-23T14:50:08;30.10;1.00
5779;DHT22;2916;49.798;10.022;2022-07-23T14:52:35;30.00;1.00
5779;DHT22;2916;49.798;10.022;2022-07-23T14:55:03;30.30;1.00
5779;DHT22;2916;49.798;10.022;2022-07-23T14:57:32;30.50;1.00
5779;DHT22;2916;49.798;10.022;2022-07-23T15:00:00;30.60;1.00
5779;DHT22;2916;49.798;10.022;2022-07-23T15:02:27;30.20;1.00
5779;DHT22;2916;49.798;10.022;2022-07-23T15:04:55;30.00;1.00
5779;DHT22;2916;49.798;10.022;2022-07-23T15:07:26;29.90;1.00
5779;DHT22;2916;49.798;10.022;2022-07-23T15:09:54;30.00;1.00
5779;DHT22;2916;49.798;10.022;2022-07-23T15:12:22;30.10;1.00
5779;DHT22;2916;49.798;10.022;2022-07-23T15:14:50;30.20;1.00
5779;DHT22;2916;49.798;10.022;2022-07-23T15:17:18;30.20;1.00
5779;DHT22;2916;49.798;10.022;2022-07-23T15:19:45;30.40;1.00
5779;DHT22;2916;49.798;10.022;2022-07-23T15:22:12;30.60;1.00
5779;DHT22;2916;49.798;10.022;2022-07-23T15:24:39;30.40;1.00
5779;DHT22;2916;49.798;10.022;2022-07-23T15:27:07;30.20;1.00
5779;DHT22;2916;49.798;10.022;2022-07-23T15:29:34;30.10;1.00
5779;DHT22;2916;49.798;10.022;2022-07-23T15:32:03;30.30;1.00
5779;DHT22;2916;49.798;10.022;2022-07-23T15:34:31;30.50;1.00
5779;DHT22;2916;49.798;10.022;2022-07-23T15:37:00;30.40;1.00
5779;DHT22;2916;49.798;10.022;2022-07-23T15:39:27;30.40;1.00
5779;DHT22;2916;49.798;10.022;2022-07-23T15:41:57;30.30;1.00
5779;DHT22;2916;49.798;10.022;2022-07-23T15:44:25;30.40;1.00
5779;DHT22;2916;49.798;10.022;2022-07-23T15:46:52;30.40;1.00
5779;DHT22;2916;49.798;10.022;2022-07-23T15:49:22;30.40;1.00
5779;DHT22;2916;49.798;10.022;2022-07-23T15:51:49;30.40;1.00
5779;DHT22;2916;49.798;10.022;2022-07-23T15:54:16;30.40;1.00
5779;DHT22;2916;49.798;10.022;2022-07-23T15:56:43;30.40;1.00
5779;DHT22;2916;49.798;10.022;2022-07-23T15:59:11;30.20;1.00
5779;DHT22;2916;49.798;10.022;2022-07-23T16:01:38;30.30;1.00
5779;DHT22;2916;49.798;10.022;2022-07-23T16:04:05;30.40;1.00
5779;DHT22;2916;49.798;10.022;2022-07-23T16:06:36;30.10;1.00
5779;DHT22;2916;49.798;10.022;2022-07-23T16:09:03;29.90;1.00